createdAt,value
2023-02-14T00:02:24.084Z,101660.22
2023-02-14T00:04:52.834Z,101621.03
2023-02-14T00:07:23.265Z,101671.06
2023-02-14T00:09:51.935Z,101655.69
2023-02-14T00:12:20.469Z,101655.78
2023-02-14T00:15:07.558Z,101621.94
2023-02-14T00:17:36.098Z,101632.69
2023-02-14T00:20:05.142Z,101653.22
2023-02-14T00:22:33.693Z,101623.75
2023-02-14T00:25:02.286Z,101663.97
2023-02-14T00:27:31.252Z,101661.75
2023-02-14T00:30:03.985Z,101678.72
2023-02-14T00:32:32.861Z,101681.03
2023-02-14T00:35:01.316Z,101651.84
2023-02-14T00:37:30.166Z,101657.16
2023-02-14T00:39:58.700Z,101645.56
2023-02-14T00:42:28.050Z,101648.72
2023-02-14T00:44:56.717Z,101655.19
2023-02-14T00:47:25.216Z,101655.59
2023-02-14T00:49:53.918Z,101672.00
2023-02-14T00:52:22.440Z,101697.72
2023-02-14T00:54:50.964Z,101666.25
2023-02-14T00:57:19.525Z,101665.53
2023-02-14T00:59:48.149Z,101721.47
2023-02-14T01:02:16.718Z,101679.84
2023-02-14T01:04:45.658Z,101702.94
2023-02-14T01:07:14.145Z,101670.41
2023-02-14T01:09:43.496Z,101706.38
2023-02-14T01:12:12.063Z,101675.16
2023-02-14T01:14:43.343Z,101670.06
2023-02-14T01:17:12.027Z,101665.72
2023-02-14T01:19:43.038Z,101675.75
2023-02-14T01:22:11.736Z,101702.16
2023-02-14T01:24:40.291Z,101624.94
2023-02-14T01:27:08.872Z,101700.28
2023-02-14T01:29:37.654Z,101558.88
2023-02-14T01:32:06.444Z,101652.50
2023-02-14T01:34:35.214Z,101717.13
2023-02-14T01:37:03.698Z,101672.28
2023-02-14T01:39:32.359Z,101701.81
2023-02-14T01:42:01.860Z,101671.88
2023-02-14T01:44:50.525Z,101714.94
2023-02-14T01:47:22.083Z,101695.63
2023-02-14T01:49:55.158Z,101725.03
2023-02-14T01:52:30.228Z,101710.38
2023-02-14T01:55:11.097Z,101681.88
2023-02-14T01:58:00.272Z,101702.94
2023-02-14T02:00:47.950Z,101704.38
2023-02-14T02:03:20.224Z,101733.94
2023-02-14T02:05:54.567Z,101709.38
2023-02-14T02:08:25.831Z,101726.94
2023-02-14T02:10:54.521Z,101738.56
2023-02-14T02:13:23.793Z,101700.16
2023-02-14T02:16:03.322Z,101742.50
2023-02-14T02:18:55.877Z,101742.69
2023-02-14T02:21:52.181Z,101739.28
2023-02-14T02:24:45.127Z,101717.16
2023-02-14T02:27:19.569Z,101749.81
2023-02-14T02:29:56.924Z,101744.97
2023-02-14T02:32:59.486Z,101753.06
2023-02-14T02:35:58.085Z,101751.59
2023-02-14T02:38:45.717Z,101765.31
2023-02-14T02:41:29.101Z,101684.50
2023-02-14T02:44:02.298Z,101769.00
2023-02-14T02:46:50.402Z,101752.38
2023-02-14T02:50:00.266Z,101765.97
2023-02-14T02:52:57.969Z,101770.22
2023-02-14T02:56:08.625Z,101704.44
2023-02-14T02:58:52.977Z,101745.25
2023-02-14T03:01:27.800Z,101711.09
2023-02-14T03:04:20.180Z,101781.16
2023-02-14T03:06:49.475Z,101700.66
2023-02-14T03:09:21.153Z,101772.56
2023-02-14T03:11:58.690Z,101757.13
2023-02-14T03:15:09.180Z,101721.00
2023-02-14T03:18:14.500Z,101756.66
2023-02-14T03:21:19.440Z,101766.41
2023-02-14T03:24:09.807Z,101767.94
2023-02-14T03:27:02.271Z,101732.13
2023-02-14T03:29:52.284Z,101770.06
2023-02-14T03:32:31.324Z,101770.50
2023-02-14T03:35:14.975Z,101770.88
2023-02-14T03:37:53.055Z,101766.63
2023-02-14T03:40:39.971Z,101764.16
2023-02-14T03:43:13.739Z,101723.50
2023-02-14T03:45:56.823Z,101724.56
2023-02-14T03:48:29.415Z,101719.84
2023-02-14T03:51:00.159Z,101718.84
2023-02-14T03:53:33.730Z,101739.75
2023-02-14T03:56:31.830Z,101647.13
2023-02-14T03:59:08.239Z,101747.94
2023-02-14T04:01:50.065Z,101623.25
2023-02-14T04:04:22.660Z,101753.50
2023-02-14T04:06:51.560Z,101767.69
2023-02-14T04:09:20.286Z,101739.84
2023-02-14T04:11:51.042Z,101769.31
2023-02-14T04:14:19.913Z,101730.81
2023-02-14T04:17:06.618Z,101740.16
2023-02-14T04:19:37.719Z,101743.41
2023-02-14T04:22:06.290Z,101762.66
2023-02-14T04:24:35.012Z,101773.00
2023-02-14T04:27:12.818Z,101777.72
2023-02-14T04:29:41.402Z,101783.31
2023-02-14T04:32:13.660Z,101774.88
2023-02-14T04:34:45.048Z,101773.25
2023-02-14T04:37:14.840Z,101779.84
2023-02-14T04:39:43.559Z,101655.75
2023-02-14T04:42:12.323Z,101741.66
2023-02-14T04:44:40.975Z,101750.97
2023-02-14T04:47:10.411Z,101767.56
2023-02-14T04:49:39.114Z,101653.69
2023-02-14T04:52:08.203Z,101788.28
2023-02-14T04:54:36.679Z,101723.72
2023-02-14T04:57:05.325Z,101734.63
2023-02-14T04:59:33.994Z,101763.88
2023-02-14T05:02:02.778Z,101755.75
2023-02-14T05:04:31.647Z,101745.22
2023-02-14T05:07:02.805Z,101730.59
2023-02-14T05:09:31.529Z,101708.34
2023-02-14T05:12:02.295Z,101725.59
2023-02-14T05:14:31.019Z,101750.44
2023-02-14T05:16:59.616Z,101719.78
2023-02-14T05:19:31.225Z,101703.03
2023-02-14T05:21:59.924Z,101752.25
2023-02-14T05:24:28.558Z,101730.56
2023-02-14T05:26:57.110Z,101730.13
2023-02-14T05:29:25.931Z,101755.31
2023-02-14T05:31:54.737Z,101714.13
2023-02-14T05:34:23.409Z,101721.91
2023-02-14T05:36:52.009Z,101749.06
2023-02-14T05:39:20.783Z,101737.47
2023-02-14T05:41:51.781Z,101643.59
2023-02-14T05:44:20.361Z,101735.47
2023-02-14T05:46:49.036Z,101717.28
2023-02-14T05:49:17.606Z,101707.03
2023-02-14T05:51:48.930Z,101656.09
2023-02-14T05:54:17.529Z,101713.25
2023-02-14T05:56:46.210Z,101776.28
2023-02-14T05:59:15.362Z,101739.03
2023-02-14T06:01:44.043Z,101746.13
2023-02-14T06:04:12.869Z,101745.47
2023-02-14T06:06:41.610Z,101790.25
2023-02-14T06:09:10.164Z,101769.53
2023-02-14T06:11:38.690Z,101776.13
2023-02-14T06:14:07.485Z,101757.66
2023-02-14T06:16:36.366Z,101786.63
2023-02-14T06:19:04.972Z,101799.69
2023-02-14T06:21:33.685Z,101788.56
2023-02-14T06:24:02.230Z,101614.81
2023-02-14T06:26:31.329Z,101797.69
2023-02-14T06:29:00.272Z,101778.16
2023-02-14T06:31:29.203Z,101758.56
2023-02-14T06:33:57.970Z,101760.03
2023-02-14T06:36:27.885Z,101806.31
2023-02-14T06:38:57.475Z,101785.78
2023-02-14T06:41:26.201Z,101794.66
2023-02-14T06:43:55.087Z,101742.69
2023-02-14T06:46:25.073Z,101730.00
2023-02-14T06:48:53.807Z,101796.47
2023-02-14T06:51:22.609Z,101791.09
2023-02-14T06:53:51.396Z,101755.00
2023-02-14T06:56:21.248Z,101778.25
2023-02-14T06:58:50.042Z,101745.19
2023-02-14T07:01:18.638Z,101725.63
2023-02-14T07:03:47.482Z,101694.81
2023-02-14T07:06:16.149Z,101737.41
2023-02-14T07:08:44.803Z,101737.59
2023-02-14T07:11:16.542Z,101745.38
2023-02-14T07:13:45.148Z,101727.63
2023-02-14T07:16:13.751Z,101717.66
2023-02-14T07:18:42.625Z,101753.75
2023-02-14T07:21:11.304Z,101727.66
2023-02-14T07:23:41.200Z,101769.53
2023-02-14T07:26:09.987Z,101717.75
2023-02-14T07:28:38.724Z,101721.81
2023-02-14T07:31:07.723Z,101712.41
2023-02-14T07:33:36.462Z,101767.16
2023-02-14T07:36:07.905Z,101733.47
2023-02-14T07:38:36.927Z,101659.53
2023-02-14T07:41:05.910Z,101652.47
2023-02-14T07:43:37.741Z,101648.34
2023-02-14T07:46:07.340Z,101734.59
2023-02-14T07:48:36.172Z,101741.75
2023-02-14T07:51:05.090Z,101724.22
2023-02-14T07:53:33.812Z,101744.03
2023-02-14T07:56:02.646Z,101741.72
2023-02-14T07:58:31.528Z,101710.75
2023-02-14T08:01:00.989Z,101734.06
2023-02-14T08:03:30.024Z,101708.97
2023-02-14T08:05:58.724Z,101717.69
2023-02-14T08:08:29.272Z,101735.84
2023-02-14T08:10:58.584Z,101703.44
2023-02-14T08:13:27.800Z,101731.03
2023-02-14T08:16:05.583Z,101734.28
2023-02-14T08:18:37.643Z,101718.75
2023-02-14T08:21:08.782Z,101710.31
2023-02-14T08:23:38.821Z,101721.50
2023-02-14T08:26:07.772Z,101745.47
2023-02-14T08:28:36.449Z,101703.00
2023-02-14T08:31:05.970Z,101738.16
2023-02-14T08:33:34.894Z,101724.34
2023-02-14T08:36:03.555Z,101719.91
2023-02-14T08:38:32.198Z,101693.13
2023-02-14T08:41:05.805Z,101739.81
2023-02-14T08:43:36.559Z,101732.13
2023-02-14T08:46:05.469Z,101734.81
2023-02-14T08:48:39.183Z,101731.06
2023-02-14T08:51:13.176Z,101744.94
2023-02-14T08:53:43.006Z,101720.81
2023-02-14T08:56:16.177Z,101748.03
2023-02-14T08:58:44.932Z,101753.59
2023-02-14T09:01:17.521Z,101729.50
2023-02-14T09:03:46.375Z,101699.25
2023-02-14T09:06:18.042Z,101727.16
2023-02-14T09:08:47.382Z,101726.78
2023-02-14T09:11:19.736Z,101729.53
2023-02-14T09:13:49.104Z,101710.41
2023-02-14T09:16:19.168Z,101723.13
2023-02-14T09:18:49.146Z,101703.44
2023-02-14T09:21:21.197Z,101709.84
2023-02-14T09:23:49.943Z,101625.84
2023-02-14T09:26:22.221Z,101707.34
2023-02-14T09:28:51.611Z,101727.78
2023-02-14T09:31:23.467Z,101713.84
2023-02-14T09:34:11.264Z,101735.31
2023-02-14T09:36:39.901Z,101697.41
2023-02-14T09:39:11.729Z,101732.97
2023-02-14T09:42:15.848Z,101696.53
2023-02-14T09:45:00.301Z,101679.75
2023-02-14T09:47:42.973Z,101730.13
2023-02-14T09:50:32.224Z,101722.06
2023-02-14T09:53:14.928Z,101607.63
2023-02-14T09:55:58.602Z,101691.66
2023-02-14T09:58:32.582Z,101714.50
2023-02-14T10:01:08.592Z,101719.22
2023-02-14T10:03:59.100Z,101727.06
2023-02-14T10:06:51.581Z,101725.84
2023-02-14T10:09:35.360Z,101731.41
2023-02-14T10:12:06.182Z,101699.06
2023-02-14T10:14:41.429Z,101695.41
2023-02-14T10:17:40.723Z,101706.84
2023-02-14T10:20:25.460Z,101734.69
2023-02-14T10:23:05.896Z,101725.34
2023-02-14T10:25:47.894Z,101733.38
2023-02-14T10:28:31.465Z,101729.53
2023-02-14T10:31:08.564Z,101718.03
2023-02-14T10:33:40.220Z,101709.88
2023-02-14T10:36:46.332Z,101722.81
2023-02-14T10:39:30.939Z,101687.78
2023-02-14T10:42:02.256Z,101695.19
2023-02-14T10:44:48.818Z,101681.66
2023-02-14T10:47:23.372Z,101722.16
2023-02-14T10:50:10.137Z,101734.78
2023-02-14T10:53:05.802Z,101654.47
2023-02-14T10:55:40.922Z,101727.47
2023-02-14T10:58:16.356Z,101646.84
2023-02-14T11:00:57.903Z,101727.31
2023-02-14T11:03:28.354Z,101703.88
2023-02-14T11:05:57.464Z,101724.22
2023-02-14T11:08:46.933Z,101743.88
2023-02-14T11:11:31.187Z,101716.22
2023-02-14T11:14:33.181Z,101735.97
2023-02-14T11:17:27.702Z,101626.41
2023-02-14T11:20:10.222Z,101707.56
2023-02-14T11:22:39.345Z,101732.84
2023-02-14T11:25:23.641Z,101704.75
2023-02-14T11:28:02.798Z,101715.09
2023-02-14T11:30:41.866Z,101725.81
2023-02-14T11:33:35.910Z,101703.88
2023-02-14T11:36:06.743Z,101692.66
2023-02-14T11:38:39.785Z,101738.66
2023-02-14T11:41:12.760Z,101727.81
2023-02-14T11:43:44.729Z,101725.31
2023-02-14T11:46:27.491Z,101628.47
2023-02-14T11:49:05.701Z,101707.91
2023-02-14T11:51:42.562Z,101745.13
2023-02-14T11:54:35.411Z,101684.88
2023-02-14T11:57:06.610Z,101754.88
2023-02-14T12:00:12.837Z,101741.72
2023-02-14T12:02:47.048Z,101701.22
2023-02-14T12:05:29.257Z,101748.69
2023-02-14T12:08:01.278Z,101720.81
2023-02-14T12:10:32.561Z,101700.97
2023-02-14T12:13:09.113Z,101705.88
2023-02-14T12:15:45.162Z,101719.16
2023-02-14T12:18:22.791Z,101732.28
2023-02-14T12:20:57.753Z,101728.09
2023-02-14T12:23:33.935Z,101694.88
2023-02-14T12:26:07.517Z,101740.16
2023-02-14T12:28:45.996Z,101697.34
2023-02-14T12:31:15.092Z,101747.69
2023-02-14T12:33:46.224Z,101731.19
2023-02-14T12:36:37.072Z,101750.63
2023-02-14T12:39:33.659Z,101746.28
2023-02-14T12:42:18.370Z,101746.00
2023-02-14T12:44:58.882Z,101752.44
2023-02-14T12:48:02.863Z,101711.69
2023-02-14T12:50:40.479Z,101764.56
2023-02-14T12:53:24.162Z,101765.25
2023-02-14T12:56:11.895Z,101632.34
2023-02-14T12:58:57.714Z,101730.53
2023-02-14T13:01:40.210Z,101773.38
2023-02-14T13:04:37.453Z,101778.19
2023-02-14T13:07:09.995Z,101646.16
2023-02-14T13:10:20.253Z,101739.16
2023-02-14T13:13:04.759Z,101755.56
2023-02-14T13:15:59.589Z,101772.47
2023-02-14T13:19:05.271Z,101767.63
2023-02-14T13:21:38.235Z,101760.56
2023-02-14T13:24:25.577Z,101703.34
2023-02-14T13:26:59.950Z,101759.53
2023-02-14T13:29:34.269Z,101760.75
2023-02-14T13:32:04.294Z,101756.31
2023-02-14T13:34:32.868Z,101791.69
2023-02-14T13:37:05.177Z,101774.81
2023-02-14T13:39:44.875Z,101749.28
2023-02-14T13:42:14.332Z,101771.22
2023-02-14T13:44:48.350Z,101778.59
2023-02-14T13:47:37.369Z,101781.84
2023-02-14T13:50:06.714Z,101744.00
2023-02-14T13:52:47.994Z,101750.38
2023-02-14T13:55:26.054Z,101748.13
2023-02-14T13:58:18.089Z,101790.63
2023-02-14T14:00:52.755Z,101750.81
2023-02-14T14:03:30.315Z,101776.41
2023-02-14T14:06:11.839Z,101732.28
2023-02-14T14:08:49.302Z,101741.63
2023-02-14T14:11:23.828Z,101774.63
2023-02-14T14:14:03.852Z,101774.19
2023-02-14T14:16:35.957Z,101756.13
2023-02-14T14:19:24.508Z,101764.41
2023-02-14T14:22:05.517Z,101751.53
2023-02-14T14:24:36.971Z,101707.72
2023-02-14T14:27:18.824Z,101747.66
2023-02-14T14:29:54.807Z,101758.63
2023-02-14T14:32:30.986Z,101713.78
2023-02-14T14:35:03.588Z,101704.91
2023-02-14T14:37:35.231Z,101726.22
2023-02-14T14:40:10.364Z,101741.75
2023-02-14T14:42:41.883Z,101748.72
2023-02-14T14:45:21.647Z,101636.16
2023-02-14T14:47:54.345Z,101744.00
2023-02-14T14:50:30.844Z,101780.09
2023-02-14T14:53:03.049Z,101775.69
2023-02-14T14:55:46.006Z,101729.03
2023-02-14T14:58:37.477Z,101750.66
2023-02-14T15:01:11.631Z,101713.53
2023-02-14T15:03:41.312Z,101618.00
2023-02-14T15:06:21.701Z,101709.81
2023-02-14T15:08:52.184Z,101735.41
2023-02-14T15:11:48.321Z,101744.59
2023-02-14T15:14:23.743Z,101716.16
2023-02-14T15:17:01.563Z,101758.50
2023-02-14T15:19:39.404Z,101701.41
2023-02-14T15:22:19.645Z,101755.56
2023-02-14T15:24:50.330Z,101729.03
2023-02-14T15:27:28.310Z,101678.03
2023-02-14T15:30:04.463Z,101716.50
2023-02-14T15:32:36.286Z,101711.03
2023-02-14T15:35:07.813Z,101728.03
2023-02-14T15:37:37.726Z,101706.56
2023-02-14T15:40:09.312Z,101697.53
2023-02-14T15:42:44.688Z,101732.44
2023-02-14T15:45:31.439Z,101717.94
2023-02-14T15:48:25.311Z,101739.41
2023-02-14T15:50:59.838Z,101711.56
2023-02-14T15:53:43.820Z,101744.28
2023-02-14T15:56:31.417Z,101729.91
2023-02-14T15:59:08.732Z,101705.19
2023-02-14T16:01:38.795Z,101685.06
2023-02-14T16:04:09.296Z,101728.63
2023-02-14T16:06:45.332Z,101704.91
2023-02-14T16:09:29.271Z,101737.19
2023-02-14T16:12:00.755Z,101685.66
2023-02-14T16:14:37.057Z,101729.03
2023-02-14T16:17:14.660Z,101682.84
2023-02-14T16:19:47.566Z,101683.44
2023-02-14T16:22:32.748Z,101726.19
2023-02-14T16:25:04.246Z,101730.06
2023-02-14T16:27:32.746Z,101705.34
2023-02-14T16:30:01.455Z,101681.66
2023-02-14T16:32:31.404Z,101736.28
2023-02-14T16:35:01.596Z,101685.22
2023-02-14T16:37:34.022Z,101687.72
2023-02-14T16:40:03.194Z,101682.69
2023-02-14T16:42:34.668Z,101717.59
2023-02-14T16:45:03.872Z,101663.13
2023-02-14T16:47:32.731Z,101703.13
2023-02-14T16:50:01.959Z,101667.44
2023-02-14T16:52:31.464Z,101697.63
2023-02-14T16:55:00.192Z,101727.81
2023-02-14T16:57:33.284Z,101692.56
2023-02-14T17:00:02.152Z,101681.50
2023-02-14T17:02:30.684Z,101575.13
2023-02-14T17:04:59.570Z,101716.22
2023-02-14T17:07:32.166Z,101703.09
2023-02-14T17:10:07.150Z,101660.94
2023-02-14T17:12:42.576Z,101661.84
2023-02-14T17:15:17.062Z,101700.72
2023-02-14T17:17:48.134Z,101658.72
2023-02-14T17:20:17.121Z,101674.09
2023-02-14T17:22:45.941Z,101693.91
2023-02-14T17:25:15.073Z,101662.28
2023-02-14T17:27:45.266Z,101696.00
2023-02-14T17:30:15.419Z,101667.44
2023-02-14T17:32:44.550Z,101694.84
2023-02-14T17:35:15.074Z,101616.44
2023-02-14T17:37:43.671Z,101674.72
2023-02-14T17:40:15.219Z,101688.78
2023-02-14T17:42:43.946Z,101632.69
2023-02-14T17:45:13.564Z,101644.41
2023-02-14T17:47:47.990Z,101651.06
2023-02-14T17:50:20.578Z,101636.56
2023-02-14T17:52:50.798Z,101541.75
2023-02-14T17:55:19.862Z,101688.63
2023-02-14T17:57:53.553Z,101625.34
2023-02-14T18:00:22.375Z,101672.50
2023-02-14T18:02:51.272Z,101657.25
2023-02-14T18:05:19.773Z,101641.59
2023-02-14T18:07:48.523Z,101535.38
2023-02-14T18:10:17.374Z,101674.97
2023-02-14T18:12:46.084Z,101679.25
2023-02-14T18:15:15.440Z,101643.03
2023-02-14T18:17:44.282Z,101680.63
2023-02-14T18:20:13.181Z,101644.78
2023-02-14T18:22:41.688Z,101630.53
2023-02-14T18:25:11.014Z,101638.53
2023-02-14T18:27:40.164Z,101612.31
2023-02-14T18:30:09.605Z,101623.66
2023-02-14T18:32:38.366Z,101645.56
2023-02-14T18:35:07.231Z,101659.75
2023-02-14T18:37:35.756Z,101665.41
2023-02-14T18:40:04.317Z,101630.13
2023-02-14T18:42:33.318Z,101612.25
2023-02-14T18:45:02.291Z,101641.38
2023-02-14T18:47:30.975Z,101687.59
2023-02-14T18:49:59.264Z,101677.97
2023-02-14T18:52:27.872Z,101652.53
2023-02-14T18:54:59.175Z,101663.44
2023-02-14T18:57:27.776Z,101647.47
2023-02-14T18:59:59.609Z,101660.34
2023-02-14T19:02:28.349Z,101649.34
2023-02-14T19:04:59.898Z,101553.88
2023-02-14T19:07:28.860Z,101653.63
2023-02-14T19:09:57.742Z,101639.44
2023-02-14T19:12:26.266Z,101635.56
2023-02-14T19:14:55.948Z,101659.66
2023-02-14T19:17:25.083Z,101633.72
2023-02-14T19:19:54.362Z,101645.84
2023-02-14T19:22:23.561Z,101678.72
2023-02-14T19:24:54.393Z,101677.97
2023-02-14T19:27:24.604Z,101620.09
2023-02-14T19:29:53.285Z,101678.38
2023-02-14T19:32:22.051Z,101629.06
2023-02-14T19:34:51.332Z,101648.13
2023-02-14T19:37:19.993Z,101680.84
2023-02-14T19:39:48.904Z,101690.66
2023-02-14T19:42:17.364Z,101669.63
2023-02-14T19:44:47.416Z,101545.44
2023-02-14T19:47:29.026Z,101675.28
2023-02-14T19:50:02.561Z,101658.22
2023-02-14T19:52:31.337Z,101662.50
2023-02-14T19:55:03.798Z,101664.41
2023-02-14T19:57:32.497Z,101623.13
2023-02-14T20:00:01.324Z,101648.06
2023-02-14T20:02:46.422Z,101619.78
2023-02-14T20:05:20.178Z,101677.47
2023-02-14T20:07:49.982Z,101678.28
2023-02-14T20:10:18.981Z,101525.84
2023-02-14T20:12:47.855Z,101639.44
2023-02-14T20:15:16.735Z,101642.50
2023-02-14T20:17:45.941Z,101661.25
2023-02-14T20:20:16.767Z,101656.88
2023-02-14T20:22:45.561Z,101648.56
2023-02-14T20:25:14.044Z,101668.03
2023-02-14T20:27:42.966Z,101516.53
2023-02-14T20:30:12.298Z,101609.75
2023-02-14T20:32:41.494Z,101509.09
2023-02-14T20:35:10.225Z,101641.41
2023-02-14T20:37:39.121Z,101636.09
2023-02-14T20:40:10.581Z,101597.47
2023-02-14T20:42:41.504Z,101583.09
2023-02-14T20:45:10.152Z,101582.53
2023-02-14T20:47:38.759Z,101641.75
2023-02-14T20:50:08.301Z,101485.34
2023-02-14T20:52:37.770Z,101600.31
2023-02-14T20:55:07.263Z,101607.25
2023-02-14T20:57:35.984Z,101604.34
2023-02-14T21:00:05.647Z,101599.34
2023-02-14T21:02:34.406Z,101639.56
2023-02-14T21:05:03.244Z,101608.06
2023-02-14T21:07:31.929Z,101584.97
2023-02-14T21:10:03.184Z,101591.91
2023-02-14T21:12:31.722Z,101581.22
2023-02-14T21:15:02.759Z,101577.47
2023-02-14T21:17:31.493Z,101636.81
2023-02-14T21:20:00.325Z,101636.59
2023-02-14T21:22:28.926Z,101506.91
2023-02-14T21:24:57.591Z,101632.44
2023-02-14T21:27:26.187Z,101638.28
2023-02-14T21:29:55.151Z,101511.91
2023-02-14T21:32:29.209Z,101614.75
2023-02-14T21:34:57.876Z,101634.47
2023-02-14T21:37:26.429Z,101635.03
2023-02-14T21:39:55.213Z,101609.81
2023-02-14T21:42:23.850Z,101603.94
2023-02-14T21:45:11.076Z,101651.47
2023-02-14T21:47:40.644Z,101631.19
2023-02-14T21:50:29.630Z,101605.06
2023-02-14T21:52:58.431Z,101643.59
2023-02-14T21:55:27.082Z,101608.63
2023-02-14T21:57:55.610Z,101605.97
2023-02-14T22:00:24.168Z,101588.84
2023-02-14T22:02:53.335Z,101609.09
2023-02-14T22:05:22.094Z,101636.81
2023-02-14T22:07:53.094Z,101611.94
2023-02-14T22:10:21.688Z,101631.50
2023-02-14T22:12:50.472Z,101570.19
2023-02-14T22:15:19.060Z,101608.03
2023-02-14T22:17:47.828Z,101609.81
2023-02-14T22:20:17.491Z,101611.94
2023-02-14T22:22:49.129Z,101633.28
2023-02-14T22:25:20.468Z,101620.56
2023-02-14T22:27:49.109Z,101604.28
2023-02-14T22:30:18.279Z,101577.50
2023-02-14T22:32:47.446Z,101605.63
2023-02-14T22:35:16.127Z,101621.88
2023-02-14T22:37:44.784Z,101633.81
2023-02-14T22:40:16.684Z,101649.59
2023-02-14T22:42:45.563Z,101595.31
2023-02-14T22:45:14.660Z,101615.47
2023-02-14T22:47:43.400Z,101636.50
2023-02-14T22:50:12.353Z,101607.88
2023-02-14T22:52:41.420Z,101627.78
2023-02-14T22:55:10.937Z,101614.13
2023-02-14T22:57:40.041Z,101644.59
2023-02-14T23:00:12.309Z,101585.47
2023-02-14T23:02:40.917Z,101592.53
2023-02-14T23:05:09.992Z,101591.50
2023-02-14T23:07:38.656Z,101592.38
2023-02-14T23:10:08.974Z,101595.53
2023-02-14T23:12:56.334Z,101570.75
2023-02-14T23:15:43.516Z,101452.25
2023-02-14T23:18:32.617Z,101607.56
2023-02-14T23:21:19.494Z,101550.91
2023-02-14T23:23:48.459Z,101574.84
2023-02-14T23:26:21.075Z,101587.22
2023-02-14T23:28:50.130Z,101583.00
2023-02-14T23:31:19.641Z,101583.09
2023-02-14T23:33:52.765Z,101570.88
2023-02-14T23:36:24.154Z,101457.78
2023-02-14T23:38:52.696Z,101582.34
2023-02-14T23:41:40.414Z,101567.00
2023-02-14T23:44:09.255Z,101568.22
2023-02-14T23:46:38.300Z,101568.06
2023-02-14T23:49:07.420Z,101596.06
2023-02-14T23:51:37.217Z,101577.41
2023-02-14T23:54:06.556Z,101556.66
2023-02-14T23:56:35.578Z,101561.44
2023-02-14T23:59:05.996Z,101547.06
